createdAt,value
2018-11-21T00:00:26.074Z,5.46
2018-11-21T00:03:01.965Z,5.43
2018-11-21T00:05:31.966Z,5.42
2018-11-21T00:08:06.994Z,5.39
2018-11-21T00:10:35.891Z,5.29
2018-11-21T00:13:10.422Z,5.29
2018-11-21T00:15:39.294Z,5.32
2018-11-21T00:18:11.259Z,5.29
2018-11-21T00:20:39.944Z,5.29
2018-11-21T00:23:08.531Z,5.21
2018-11-21T00:25:38.410Z,5.22
2018-11-21T00:28:07.056Z,5.24
2018-11-21T00:30:35.639Z,5.21
2018-11-21T00:33:07.814Z,5.25
2018-11-21T00:35:36.429Z,5.22
2018-11-21T00:38:07.966Z,5.22
2018-11-21T00:40:37.195Z,5.18
2018-11-21T00:43:05.997Z,5.21
2018-11-21T00:45:37.435Z,5.19
2018-11-21T00:48:08.227Z,5.17
2018-11-21T00:50:40.041Z,5.08
2018-11-21T00:53:08.665Z,5.08
2018-11-21T00:55:40.781Z,5.08
2018-11-21T00:58:17.141Z,5.08
2018-11-21T01:00:46.091Z,5.01
2018-11-21T01:03:15.089Z,5.04
2018-11-21T01:05:51.732Z,5.06
2018-11-21T01:08:22.306Z,5.03
2018-11-21T01:10:51.376Z,5.01
2018-11-21T01:13:26.730Z,5.00
2018-11-21T01:15:56.977Z,4.96
2018-11-21T01:18:28.436Z,4.97
2018-11-21T01:20:57.116Z,4.96
2018-11-21T01:23:26.005Z,4.96
2018-11-21T01:25:54.958Z,4.86
2018-11-21T01:28:24.441Z,4.86
2018-11-21T01:30:53.880Z,4.94
2018-11-21T01:33:22.462Z,4.90
2018-11-21T01:35:51.301Z,4.84
2018-11-21T01:38:21.852Z,4.88
2018-11-21T01:40:50.724Z,4.84
2018-11-21T01:43:19.549Z,4.84
2018-11-21T01:45:49.165Z,4.82
2018-11-21T01:48:18.382Z,4.78
2018-11-21T01:50:47.703Z,4.80
2018-11-21T01:53:16.662Z,4.82
2018-11-21T01:55:45.601Z,4.81
2018-11-21T01:58:17.839Z,4.81
2018-11-21T02:00:47.083Z,4.75
2018-11-21T02:03:24.909Z,4.75
2018-11-21T02:05:53.953Z,4.77
2018-11-21T02:08:23.489Z,4.77
2018-11-21T02:10:52.730Z,4.75
2018-11-21T02:13:22.171Z,4.74
2018-11-21T02:15:51.465Z,4.73
2018-11-21T02:18:20.744Z,4.70
2018-11-21T02:20:49.765Z,4.75
2018-11-21T02:23:19.015Z,4.75
2018-11-21T02:25:53.707Z,4.72
2018-11-21T02:28:22.395Z,4.74
2018-11-21T02:30:53.561Z,4.73
2018-11-21T02:33:23.168Z,4.69
2018-11-21T02:35:52.065Z,4.67
2018-11-21T02:38:22.340Z,4.59
2018-11-21T02:40:51.324Z,4.62
2018-11-21T02:43:21.111Z,4.63
2018-11-21T02:45:50.142Z,4.61
2018-11-21T02:48:18.769Z,4.62
2018-11-21T02:50:47.382Z,4.62
2018-11-21T02:53:22.306Z,4.64
2018-11-21T02:55:50.853Z,4.60
2018-11-21T02:58:23.660Z,4.58
2018-11-21T03:00:52.948Z,4.58
2018-11-21T03:03:22.267Z,4.55
2018-11-21T03:06:00.162Z,4.55
2018-11-21T03:08:28.842Z,4.54
2018-11-21T03:10:57.803Z,4.45
2018-11-21T03:13:28.568Z,4.45
2018-11-21T03:15:56.629Z,4.48
2018-11-21T03:18:31.085Z,4.46
2018-11-21T03:21:00.262Z,4.46
2018-11-21T03:23:29.522Z,4.34
2018-11-21T03:25:58.776Z,4.34
2018-11-21T03:28:27.678Z,4.36
2018-11-21T03:30:57.700Z,4.33
2018-11-21T03:33:29.619Z,4.33
2018-11-21T03:35:58.687Z,4.31
2018-11-21T03:38:36.733Z,4.32
2018-11-21T03:41:05.372Z,4.30
2018-11-21T03:43:37.044Z,4.25
2018-11-21T03:46:06.034Z,4.25
2018-11-21T03:48:34.642Z,4.25
2018-11-21T03:51:03.557Z,4.25
2018-11-21T03:53:32.226Z,4.22
2018-11-21T03:56:01.486Z,4.22
2018-11-21T03:58:30.407Z,4.20
2018-11-21T04:00:59.955Z,4.24
2018-11-21T04:03:34.809Z,4.24
2018-11-21T04:06:04.449Z,4.16
2018-11-21T04:08:33.009Z,4.17
2018-11-21T04:11:02.289Z,4.19
2018-11-21T04:13:31.183Z,4.16
2018-11-21T04:16:00.121Z,4.16
2018-11-21T04:18:30.325Z,4.18
2018-11-21T04:21:01.161Z,4.19
2018-11-21T04:23:30.207Z,4.18
2018-11-21T04:25:59.445Z,4.17
2018-11-21T04:28:28.786Z,4.16
2018-11-21T04:31:00.657Z,4.06
2018-11-21T04:33:29.695Z,4.07
2018-11-21T04:35:59.233Z,4.06
2018-11-21T04:38:28.431Z,4.06
2018-11-21T04:40:57.707Z,3.98
2018-11-21T04:43:26.598Z,3.99
2018-11-21T04:45:56.196Z,3.96
2018-11-21T04:48:34.656Z,3.96
2018-11-21T04:51:03.617Z,3.97
2018-11-21T04:53:32.564Z,3.90
2018-11-21T04:56:03.275Z,3.90
2018-11-21T04:58:30.505Z,3.87
2018-11-21T05:01:07.183Z,3.92
2018-11-21T05:03:36.161Z,3.91
2018-11-21T05:06:08.112Z,3.83
2018-11-21T05:08:37.486Z,3.83
2018-11-21T05:11:06.424Z,3.88
2018-11-21T05:13:34.781Z,3.89
2018-11-21T05:16:04.157Z,3.91
2018-11-21T05:18:33.157Z,3.92
2018-11-21T05:21:08.504Z,3.88
2018-11-21T05:23:37.438Z,3.80
2018-11-21T05:26:07.073Z,3.86
2018-11-21T05:28:36.930Z,3.84
2018-11-21T05:31:06.297Z,3.82
2018-11-21T05:33:35.567Z,3.82
2018-11-21T05:36:11.573Z,3.81
2018-11-21T05:38:40.527Z,3.79
2018-11-21T05:41:10.422Z,3.68
2018-11-21T05:43:39.044Z,3.70
2018-11-21T05:46:08.073Z,3.67
2018-11-21T05:48:37.271Z,3.75
2018-11-21T05:51:06.210Z,3.75
2018-11-21T05:53:35.374Z,3.78
2018-11-21T05:56:13.303Z,3.76
2018-11-21T05:58:42.274Z,3.76
2018-11-21T06:01:17.950Z,3.73
2018-11-21T06:03:47.561Z,3.74
2018-11-21T06:06:19.548Z,3.74
2018-11-21T06:08:50.924Z,3.71
2018-11-21T06:11:18.325Z,3.71
2018-11-21T06:13:54.298Z,3.69
2018-11-21T06:16:23.599Z,3.76
2018-11-21T06:18:55.161Z,3.68
2018-11-21T06:21:24.136Z,3.73
2018-11-21T06:24:00.237Z,3.65
2018-11-21T06:26:29.199Z,3.63
2018-11-21T06:28:59.238Z,3.61
2018-11-21T06:31:28.254Z,3.61
2018-11-21T06:33:57.257Z,3.63
2018-11-21T06:36:26.788Z,3.63
2018-11-21T06:38:56.343Z,3.62
2018-11-21T06:41:25.365Z,3.61
2018-11-21T06:44:00.751Z,3.61
2018-11-21T06:46:29.652Z,3.61
2018-11-21T06:48:58.548Z,3.61
2018-11-21T06:51:31.892Z,3.60
2018-11-21T06:53:58.280Z,3.60
2018-11-21T06:56:27.700Z,3.66
2018-11-21T06:59:00.012Z,3.63
2018-11-21T07:01:28.981Z,3.63
2018-11-21T07:03:58.218Z,3.66
2018-11-21T07:06:27.678Z,3.67
2018-11-21T07:08:56.319Z,3.69
2018-11-21T07:11:25.306Z,3.74
2018-11-21T07:13:54.301Z,3.74
2018-11-21T07:16:23.598Z,3.76
2018-11-21T07:18:53.671Z,3.79
2018-11-21T07:21:23.280Z,3.95
2018-11-21T07:24:00.582Z,3.95
2018-11-21T07:26:29.938Z,4.03
2018-11-21T07:28:59.168Z,4.05
2018-11-21T07:31:27.911Z,4.13
2018-11-21T07:33:59.215Z,4.13
2018-11-21T07:36:36.282Z,4.23
2018-11-21T07:39:07.479Z,4.23
2018-11-21T07:41:36.690Z,4.33
2018-11-21T07:44:05.500Z,4.63
2018-11-21T07:46:35.493Z,4.78
2018-11-21T07:49:04.969Z,4.78
2018-11-21T07:51:39.986Z,4.82
2018-11-21T07:54:14.723Z,5.00
2018-11-21T07:57:19.221Z,5.13
2018-11-21T08:00:45.795Z,5.36
2018-11-21T08:03:16.740Z,5.48
2018-11-21T08:05:47.532Z,5.42
2018-11-21T08:08:47.306Z,5.42
2018-11-21T08:11:45.634Z,5.38
2018-11-21T08:14:32.945Z,5.31
2018-11-21T08:17:32.417Z,5.26
2018-11-21T08:20:16.532Z,5.32
2018-11-21T08:23:16.937Z,5.39
2018-11-21T08:26:03.746Z,5.41
2018-11-21T08:28:35.765Z,5.48
2018-11-21T08:31:07.562Z,5.55
2018-11-21T08:33:36.858Z,5.60
2018-11-21T08:36:10.062Z,5.67
2018-11-21T08:38:38.695Z,5.75
2018-11-21T08:41:07.675Z,5.82
2018-11-21T08:44:08.362Z,5.89
2018-11-21T08:46:39.786Z,5.98
2018-11-21T08:49:09.843Z,6.12
2018-11-21T08:51:41.551Z,6.28
2018-11-21T08:54:10.620Z,6.39
2018-11-21T08:56:39.280Z,6.50
2018-11-21T08:59:08.569Z,6.59
2018-11-21T09:01:37.557Z,6.67
2018-11-21T09:04:07.468Z,6.68
2018-11-21T09:06:38.997Z,6.72
2018-11-21T09:09:13.450Z,6.82
2018-11-21T09:11:42.246Z,6.94
2018-11-21T09:14:11.169Z,7.06
2018-11-21T09:16:40.192Z,7.15
2018-11-21T09:19:09.103Z,7.25
2018-11-21T09:21:50.416Z,7.50
2018-11-21T09:24:19.346Z,7.77
2018-11-21T09:26:48.339Z,8.25
2018-11-21T09:29:17.739Z,8.65
2018-11-21T09:31:46.363Z,8.98
2018-11-21T09:34:15.174Z,9.11
2018-11-21T09:36:45.582Z,9.12
2018-11-21T09:39:14.303Z,8.98
2018-11-21T09:41:43.729Z,8.87
2018-11-21T09:44:12.708Z,8.94
2018-11-21T09:46:41.818Z,8.86
2018-11-21T09:49:10.910Z,9.03
2018-11-21T09:51:40.177Z,9.28
2018-11-21T09:54:08.785Z,9.22
2018-11-21T09:56:37.496Z,9.20
2018-11-21T09:59:06.600Z,8.82
2018-11-21T10:02:11.068Z,8.57
2018-11-21T10:04:40.051Z,8.47
2018-11-21T10:07:08.658Z,8.42
2018-11-21T10:09:45.156Z,8.33
2018-11-21T10:12:14.344Z,8.33
2018-11-21T10:14:43.658Z,8.25
2018-11-21T10:17:12.931Z,8.17
2018-11-21T10:19:43.218Z,8.15
2018-11-21T10:22:12.246Z,8.15
2018-11-21T10:24:40.831Z,8.09
2018-11-21T10:27:25.044Z,8.07
2018-11-21T10:29:54.342Z,8.07
2018-11-21T10:32:29.479Z,7.96
2018-11-21T10:34:59.150Z,7.99
2018-11-21T10:37:27.771Z,7.95
2018-11-21T10:40:05.365Z,7.83
2018-11-21T10:42:34.390Z,7.61
2018-11-21T10:45:03.340Z,7.53
2018-11-21T10:47:32.520Z,7.45
2018-11-21T10:50:04.025Z,7.51
2018-11-21T10:52:32.997Z,7.52
2018-11-21T10:55:05.136Z,7.59
2018-11-21T10:57:33.760Z,7.66
2018-11-21T11:00:14.912Z,7.70
2018-11-21T11:03:05.869Z,7.75
2018-11-21T11:05:55.094Z,7.74
2018-11-21T11:08:51.505Z,7.73
2018-11-21T11:11:46.117Z,7.68
2018-11-21T11:14:33.057Z,7.64
2018-11-21T11:17:20.073Z,7.62
2018-11-21T11:20:10.763Z,7.60
2018-11-21T11:23:01.672Z,7.59
2018-11-21T11:25:52.399Z,7.52
2018-11-21T11:29:07.089Z,7.44
2018-11-21T11:32:06.872Z,7.43
2018-11-21T11:34:57.827Z,7.50
2018-11-21T11:37:51.244Z,7.47
2018-11-21T11:40:37.537Z,7.62
2018-11-21T11:44:10.725Z,7.56
2018-11-21T11:47:08.228Z,7.57
2018-11-21T11:49:57.674Z,7.58
2018-11-21T11:52:44.216Z,7.58
2018-11-21T11:55:30.092Z,7.63
2018-11-21T11:58:09.575Z,7.69
2018-11-21T12:01:06.121Z,7.66
2018-11-21T12:03:57.765Z,7.65
2018-11-21T12:06:52.982Z,7.66
2018-11-21T12:09:39.144Z,7.61
2018-11-21T12:15:16.796Z,7.45
2018-11-21T12:18:03.496Z,7.45
2018-11-21T12:21:06.707Z,7.42
2018-11-21T12:23:56.611Z,7.39
2018-11-21T12:26:51.003Z,7.34
2018-11-21T12:29:53.785Z,7.38
2018-11-21T12:32:43.397Z,7.39
2018-11-21T12:35:31.045Z,7.43
2018-11-21T12:38:34.127Z,7.44
2018-11-21T12:41:20.520Z,7.38
2018-11-21T12:44:12.451Z,7.42
2018-11-21T12:47:01.264Z,7.42
2018-11-21T12:49:48.321Z,7.39
2018-11-21T12:52:37.424Z,7.30
2018-11-21T12:55:32.887Z,7.31
2018-11-21T12:58:34.676Z,7.24
2018-11-21T13:01:21.077Z,7.25
2018-11-21T13:04:07.139Z,7.28
2018-11-21T13:06:51.231Z,7.22
2018-11-21T13:09:37.320Z,7.21
2018-11-21T13:12:26.403Z,7.17
2018-11-21T13:15:29.088Z,7.16
2018-11-21T13:18:17.272Z,7.14
2018-11-21T13:20:53.012Z,7.13
2018-11-21T13:23:46.253Z,7.06
2018-11-21T13:26:36.948Z,7.19
2018-11-21T13:29:30.786Z,6.99
2018-11-21T13:32:36.262Z,7.05
2018-11-21T13:35:37.786Z,7.04
2018-11-21T13:38:25.145Z,7.11
2018-11-21T13:41:23.084Z,7.08
2018-11-21T13:44:11.824Z,7.07
2018-11-21T13:46:58.341Z,7.14
2018-11-21T13:49:49.076Z,7.18
2018-11-21T13:52:40.017Z,7.20
2018-11-21T13:55:09.032Z,7.17
2018-11-21T13:57:38.306Z,7.13
2018-11-21T14:00:10.017Z,7.12
2018-11-21T14:02:39.353Z,7.19
2018-11-21T14:05:13.851Z,7.20
2018-11-21T14:07:43.149Z,7.19
2018-11-21T14:10:19.649Z,7.18
2018-11-21T14:12:48.995Z,7.18
2018-11-21T14:15:17.677Z,7.15
2018-11-21T14:17:52.535Z,7.02
2018-11-21T14:20:21.522Z,7.04
2018-11-21T14:22:50.152Z,7.06
2018-11-21T14:25:22.243Z,7.06
2018-11-21T14:27:52.523Z,7.13
2018-11-21T14:30:21.865Z,7.05
2018-11-21T14:32:51.113Z,7.04
2018-11-21T14:35:22.493Z,7.07
2018-11-21T14:37:51.211Z,7.11
2018-11-21T14:40:20.373Z,7.10
2018-11-21T14:42:51.155Z,7.15
2018-11-21T14:45:20.217Z,7.09
2018-11-21T14:47:51.715Z,7.08
2018-11-21T14:50:32.096Z,7.03
2018-11-21T14:53:01.043Z,6.99
2018-11-21T14:55:31.233Z,6.91
2018-11-21T14:58:00.211Z,6.86
2018-11-21T15:00:28.841Z,6.85
2018-11-21T15:02:58.115Z,6.85
2018-11-21T15:05:26.801Z,6.83
2018-11-21T15:07:55.432Z,6.80
2018-11-21T15:10:24.656Z,6.81
2018-11-21T15:12:53.355Z,6.82
2018-11-21T15:15:22.466Z,6.83
2018-11-21T15:17:54.027Z,6.83
2018-11-21T15:20:24.191Z,6.86
2018-11-21T15:22:55.005Z,6.82
2018-11-21T15:25:24.493Z,6.81
2018-11-21T15:27:53.393Z,6.79
2018-11-21T15:30:24.102Z,6.67
2018-11-21T15:32:59.073Z,6.64
2018-11-21T15:35:28.061Z,6.65
2018-11-21T15:37:56.677Z,6.62
2018-11-21T15:40:26.880Z,6.62
2018-11-21T15:42:55.961Z,6.68
2018-11-21T15:45:31.424Z,6.64
2018-11-21T15:48:02.779Z,6.65
2018-11-21T15:50:31.665Z,6.65
2018-11-21T15:53:02.373Z,6.68
2018-11-21T15:55:31.521Z,6.66
2018-11-21T15:58:00.267Z,6.65
2018-11-21T16:00:30.861Z,6.66
2018-11-21T16:03:02.233Z,6.67
2018-11-21T16:05:31.146Z,6.68
2018-11-21T16:08:03.535Z,6.66
2018-11-21T16:10:46.218Z,6.67
2018-11-21T16:13:15.221Z,6.66
2018-11-21T16:15:48.797Z,6.65
2018-11-21T16:18:25.437Z,6.64
2018-11-21T16:20:55.054Z,6.62
2018-11-21T16:23:23.732Z,6.61
2018-11-21T16:25:52.791Z,6.62
2018-11-21T16:28:21.469Z,6.64
2018-11-21T16:30:50.768Z,6.64
2018-11-21T16:33:38.263Z,6.65
2018-11-21T16:36:06.999Z,6.64
2018-11-21T16:38:36.044Z,6.65
2018-11-21T16:41:04.802Z,6.68
2018-11-21T16:43:39.720Z,6.65
2018-11-21T16:46:10.115Z,6.61
2018-11-21T16:48:38.784Z,6.61
2018-11-21T16:51:07.829Z,6.58
2018-11-21T16:53:40.132Z,6.53
2018-11-21T16:56:09.056Z,6.55
2018-11-21T16:58:38.050Z,6.49
2018-11-21T17:01:07.073Z,6.54
2018-11-21T17:03:35.714Z,6.52
2018-11-21T17:06:21.034Z,6.55
2018-11-21T17:08:49.961Z,6.52
2018-11-21T17:11:18.666Z,6.57
2018-11-21T17:13:47.267Z,6.58
2018-11-21T17:16:16.278Z,6.57
2018-11-21T17:18:48.122Z,6.61
2018-11-21T17:21:16.946Z,6.61
2018-11-21T17:23:45.956Z,6.60
2018-11-21T17:26:14.938Z,6.61
2018-11-21T17:28:43.895Z,6.63
2018-11-21T17:31:13.192Z,6.60
2018-11-21T17:33:42.213Z,6.62
2018-11-21T17:36:11.165Z,6.62
2018-11-21T17:38:40.081Z,6.61
2018-11-21T17:41:08.724Z,6.65
2018-11-21T17:43:37.762Z,6.62
2018-11-21T17:46:06.705Z,6.66
2018-11-21T17:48:35.384Z,6.67
2018-11-21T17:51:04.383Z,6.68
2018-11-21T17:53:33.721Z,6.74
2018-11-21T17:56:05.350Z,6.79
2018-11-21T17:58:34.223Z,6.78
2018-11-21T18:01:07.157Z,6.77
2018-11-21T18:03:36.094Z,6.76
2018-11-21T18:06:07.863Z,6.78
2018-11-21T18:08:43.226Z,6.81
2018-11-21T18:11:12.493Z,6.76
2018-11-21T18:13:41.151Z,6.79
2018-11-21T18:16:10.103Z,6.78
2018-11-21T18:18:38.845Z,6.82
2018-11-21T18:21:10.616Z,6.81
2018-11-21T18:23:39.625Z,6.85
2018-11-21T18:26:11.609Z,6.81
2018-11-21T18:28:40.547Z,6.78
2018-11-21T18:31:09.568Z,6.80
2018-11-21T18:33:38.547Z,6.79
2018-11-21T18:36:07.206Z,6.81
2018-11-21T18:38:37.385Z,6.80
2018-11-21T18:41:06.449Z,6.82
2018-11-21T18:43:35.175Z,6.84
2018-11-21T18:46:06.860Z,6.79
2018-11-21T18:48:35.955Z,6.77
2018-11-21T18:51:05.378Z,6.77
2018-11-21T18:53:34.609Z,6.74
2018-11-21T18:56:12.280Z,6.76
2018-11-21T18:59:16.408Z,6.77
2018-11-21T19:01:46.779Z,6.76
2018-11-21T19:04:17.116Z,6.78
2018-11-21T19:06:46.283Z,6.75
2018-11-21T19:09:21.226Z,6.73
2018-11-21T19:11:50.303Z,6.73
2018-11-21T19:14:19.329Z,6.75
2018-11-21T19:16:49.076Z,6.75
2018-11-21T19:19:23.379Z,6.73
2018-11-21T19:21:52.721Z,6.76
2018-11-21T19:24:30.596Z,6.87
2018-11-21T19:26:53.461Z,6.82
2018-11-21T19:29:24.232Z,6.76
2018-11-21T19:31:54.351Z,6.74
2018-11-21T19:34:28.950Z,6.79
2018-11-21T19:36:57.626Z,6.81
2018-11-21T19:39:26.374Z,6.81
2018-11-21T19:41:55.659Z,6.88
2018-11-21T19:44:30.297Z,6.88
2018-11-21T19:46:59.224Z,6.95
2018-11-21T19:49:33.290Z,6.86
2018-11-21T19:51:57.745Z,6.79
2018-11-21T19:54:26.549Z,6.76
2018-11-21T19:56:55.761Z,6.67
2018-11-21T19:59:27.735Z,6.68
2018-11-21T20:01:56.761Z,6.67
2018-11-21T20:04:26.130Z,6.70
2018-11-21T20:06:55.014Z,6.69
2018-11-21T20:09:34.835Z,6.70
2018-11-21T20:12:11.864Z,6.53
2018-11-21T20:14:41.288Z,6.81
2018-11-21T20:17:10.558Z,6.57
2018-11-21T20:19:39.583Z,6.50
2018-11-21T20:22:08.690Z,6.53
2018-11-21T20:24:37.403Z,6.51
2018-11-21T20:27:12.003Z,6.46
2018-11-21T20:29:46.516Z,6.47
2018-11-21T20:32:10.037Z,6.42
2018-11-21T20:34:39.322Z,6.33
2018-11-21T20:37:08.081Z,6.41
2018-11-21T20:39:36.652Z,6.29
2018-11-21T20:42:17.289Z,6.28
2018-11-21T20:44:46.330Z,6.39
2018-11-21T20:47:15.897Z,6.39
2018-11-21T20:49:44.738Z,6.36
2018-11-21T20:52:13.899Z,6.35
2018-11-21T20:54:44.169Z,6.31
2018-11-21T20:57:13.495Z,6.20
2018-11-21T20:59:42.514Z,6.14
2018-11-21T21:02:19.022Z,6.08
2018-11-21T21:04:48.037Z,6.13
2018-11-21T21:07:22.412Z,6.08
2018-11-21T21:09:46.050Z,5.97
2018-11-21T21:12:21.301Z,6.01
2018-11-21T21:14:50.248Z,6.06
2018-11-21T21:17:19.458Z,6.09
2018-11-21T21:19:48.132Z,6.13
2018-11-21T21:22:18.479Z,6.03
2018-11-21T21:24:46.432Z,6.00
2018-11-21T21:27:15.441Z,6.08
2018-11-21T21:29:47.243Z,6.01
2018-11-21T21:32:16.216Z,6.07
2018-11-21T21:34:44.889Z,6.05
2018-11-21T21:37:13.536Z,6.12
2018-11-21T21:39:51.245Z,6.27
2018-11-21T21:42:20.165Z,6.33
2018-11-21T21:44:54.698Z,6.13
2018-11-21T21:47:24.927Z,6.10
2018-11-21T21:50:04.401Z,6.06
2018-11-21T21:52:40.965Z,6.09
2018-11-21T21:55:11.134Z,6.04
2018-11-21T21:57:39.801Z,6.12
2018-11-21T22:00:19.753Z,6.12
2018-11-21T22:02:48.662Z,6.14
2018-11-21T22:05:17.372Z,6.03
2018-11-21T22:07:48.475Z,6.01
2018-11-21T22:10:18.355Z,5.94
2018-11-21T22:12:50.695Z,5.90
2018-11-21T22:15:36.101Z,5.94
2018-11-21T22:18:12.253Z,5.92
2018-11-21T22:20:49.186Z,5.96
2018-11-21T22:23:21.124Z,5.96
2018-11-21T22:25:50.065Z,5.84
2018-11-21T22:28:25.919Z,5.87
2018-11-21T22:30:56.714Z,5.89
2018-11-21T22:33:28.738Z,5.96
2018-11-21T22:36:02.754Z,6.00
2018-11-21T22:38:30.948Z,5.99
2018-11-21T22:40:55.693Z,5.86
2018-11-21T22:43:28.512Z,5.87
2018-11-21T22:45:57.352Z,5.94
2018-11-21T22:48:26.755Z,5.83
2018-11-21T22:50:55.384Z,5.82
2018-11-21T22:53:30.200Z,5.89
2018-11-21T22:56:01.274Z,5.87
2018-11-21T22:58:30.206Z,5.90
2018-11-21T23:00:59.232Z,5.91
2018-11-21T23:03:28.337Z,5.86
2018-11-21T23:05:56.947Z,5.93
2018-11-21T23:08:29.738Z,6.08
2018-11-21T23:10:59.426Z,5.99
2018-11-21T23:13:31.024Z,5.77
2018-11-21T23:15:59.965Z,5.79
2018-11-21T23:18:30.366Z,5.91
2018-11-21T23:20:59.010Z,5.78
2018-11-21T23:23:31.432Z,5.66
2018-11-21T23:26:00.455Z,5.62
2018-11-21T23:28:29.096Z,5.65
2018-11-21T23:30:57.762Z,5.69
2018-11-21T23:33:29.973Z,5.73
2018-11-21T23:35:58.574Z,5.73
2018-11-21T23:38:33.259Z,5.80
2018-11-21T23:41:01.922Z,5.83
2018-11-21T23:43:30.536Z,5.89
2018-11-21T23:45:59.150Z,5.91
2018-11-21T23:48:30.902Z,5.92
2018-11-21T23:50:59.499Z,5.96
2018-11-21T23:53:33.000Z,5.98
2018-11-21T23:56:02.421Z,5.95
2018-11-21T23:58:31.660Z,6.01
